sensor_id;sensor_type;location;lat;lon;timestamp;temperature;humidity
11855;DHT22;5987;53.140;8.904;2024-03-23T00:55:29;8.00;99.90
11855;DHT22;5987;53.140;8.904;2024-03-23T00:58:31;7.90;99.90
11855;DHT22;5987;53.140;8.904;2024-03-23T01:01:33;7.90;99.90
11855;DHT22;5987;53.140;8.904;2024-03-23T01:04:34;7.70;99.90
11855;DHT22;5987;53.140;8.904;2024-03-23T01:07:37;7.60;99.90
11855;DHT22;5987;53.140;8.904;2024-03-23T01:10:39;7.60;99.90
11855;DHT22;5987;53.140;8.904;2024-03-23T01:13:40;7.60;99.90
11855;DHT22;5987;53.140;8.904;2024-03-23T01:16:43;7.70;99.90
11855;DHT22;5987;53.140;8.904;2024-03-23T01:19:44;7.70;99.90
11855;DHT22;5987;53.140;8.904;2024-03-23T01:22:47;7.70;99.90
11855;DHT22;5987;53.140;8.904;2024-03-23T01:25:55;7.70;99.90
11855;DHT22;5987;53.140;8.904;2024-03-23T01:28:57;7.70;99.90
11855;DHT22;5987;53.140;8.904;2024-03-23T01:31:59;7.60;99.90
11855;DHT22;5987;53.140;8.904;2024-03-23T01:35:01;7.60;99.90
11855;DHT22;5987;53.140;8.904;2024-03-23T01:38:03;7.70;99.90
11855;DHT22;5987;53.140;8.904;2024-03-23T01:41:05;7.70;99.90
11855;DHT22;5987;53.140;8.904;2024-03-23T01:44:07;7.70;99.90
11855;DHT22;5987;53.140;8.904;2024-03-23T01:47:09;7.60;99.90
11855;DHT22;5987;53.140;8.904;2024-03-23T01:50:11;7.60;99.90
11855;DHT22;5987;53.140;8.904;2024-03-23T01:53:14;7.60;99.90
11855;DHT22;5987;53.140;8.904;2024-03-23T01:56:18;7.50;99.90
11855;DHT22;5987;53.140;8.904;2024-03-23T01:59:20;7.60;99.90
11855;DHT22;5987;53.140;8.904;2024-03-23T02:02:22;7.50;99.90
11855;DHT22;5987;53.140;8.904;2024-03-23T02:05:24;7.50;99.90
11855;DHT22;5987;53.140;8.904;2024-03-23T02:08:26;7.50;99.90
11855;DHT22;5987;53.140;8.904;2024-03-23T02:11:27;7.60;99.90
11855;DHT22;5987;53.140;8.904;2024-03-23T02:14:30;7.50;99.90
11855;DHT22;5987;53.140;8.904;2024-03-23T02:17:34;7.40;99.90
11855;DHT22;5987;53.140;8.904;2024-03-23T02:20:37;7.40;99.90
11855;DHT22;5987;53.140;8.904;2024-03-23T02:23:40;7.40;99.90
11855;DHT22;5987;53.140;8.904;2024-03-23T02:26:42;7.30;99.90
11855;DHT22;5987;53.140;8.904;2024-03-23T02:29:44;7.30;99.90
11855;DHT22;5987;53.140;8.904;2024-03-23T02:32:46;7.30;99.90
11855;DHT22;5987;53.140;8.904;2024-03-23T02:35:49;7.30;99.90
11855;DHT22;5987;53.140;8.904;2024-03-23T02:38:51;7.30;99.90
11855;DHT22;5987;53.140;8.904;2024-03-23T02:41:52;7.30;99.90
11855;DHT22;5987;53.140;8.904;2024-03-23T02:44:55;7.30;99.90
11855;DHT22;5987;53.140;8.904;2024-03-23T02:47:56;7.20;99.90
11855;DHT22;5987;53.140;8.904;2024-03-23T02:50:58;7.20;99.90
11855;DHT22;5987;53.140;8.904;2024-03-23T02:54:00;7.20;99.90
11855;DHT22;5987;53.140;8.904;2024-03-23T02:57:02;7.30;99.90
11855;DHT22;5987;53.140;8.904;2024-03-23T03:00:06;7.30;99.90
11855;DHT22;5987;53.140;8.904;2024-03-23T03:03:08;7.20;99.90
11855;DHT22;5987;53.140;8.904;2024-03-23T03:06:10;7.20;99.90
11855;DHT22;5987;53.140;8.904;2024-03-23T03:09:11;7.20;99.90
11855;DHT22;5987;53.140;8.904;2024-03-23T03:12:13;7.20;99.90
11855;DHT22;5987;53.140;8.904;2024-03-23T03:15:25;7.10;99.90
11855;DHT22;5987;53.140;8.904;2024-03-23T03:18:26;7.20;99.90
11855;DHT22;5987;53.140;8.904;2024-03-23T03:21:28;7.20;99.90
11855;DHT22;5987;53.140;8.904;2024-03-23T03:24:31;7.10;99.90
11855;DHT22;5987;53.140;8.904;2024-03-23T03:27:32;7.20;99.90
11855;DHT22;5987;53.140;8.904;2024-03-23T03:30:35;7.20;99.90
11855;DHT22;5987;53.140;8.904;2024-03-23T03:33:36;7.30;99.90
11855;DHT22;5987;53.140;8.904;2024-03-23T03:36:39;7.30;99.90
11855;DHT22;5987;53.140;8.904;2024-03-23T03:39:41;7.20;99.90
11855;DHT22;5987;53.140;8.904;2024-03-23T03:42:42;7.20;99.90
11855;DHT22;5987;53.140;8.904;2024-03-23T03:45:52;7.20;99.90
11855;DHT22;5987;53.140;8.904;2024-03-23T03:48:54;7.30;99.90
11855;DHT22;5987;53.140;8.904;2024-03-23T03:51:57;7.30;99.90
11855;DHT22;5987;53.140;8.904;2024-03-23T03:55:02;7.20;99.90
11855;DHT22;5987;53.140;8.904;2024-03-23T03:58:06;7.20;99.90
11855;DHT22;5987;53.140;8.904;2024-03-23T04:01:07;7.20;99.90
11855;DHT22;5987;53.140;8.904;2024-03-23T04:04:10;7.20;99.90
11855;DHT22;5987;53.140;8.904;2024-03-23T04:07:12;7.20;99.90
11855;DHT22;5987;53.140;8.904;2024-03-23T04:10:14;7.30;99.90
11855;DHT22;5987;53.140;8.904;2024-03-23T04:13:16;7.30;99.90
11855;DHT22;5987;53.140;8.904;2024-03-23T04:16:34;7.20;99.90
11855;DHT22;5987;53.140;8.904;2024-03-23T04:19:37;7.20;99.90
11855;DHT22;5987;53.140;8.904;2024-03-23T04:22:40;7.10;99.90
11855;DHT22;5987;53.140;8.904;2024-03-23T04:25:43;7.20;99.90
11855;DHT22;5987;53.140;8.904;2024-03-23T04:28:45;7.20;99.90
11855;DHT22;5987;53.140;8.904;2024-03-23T04:31:46;7.10;99.90
11855;DHT22;5987;53.140;8.904;2024-03-23T04:34:49;7.20;99.90
11855;DHT22;5987;53.140;8.904;2024-03-23T04:37:51;7.10;99.90
11855;DHT22;5987;53.140;8.904;2024-03-23T04:40:58;7.10;99.90
11855;DHT22;5987;53.140;8.904;2024-03-23T04:44:01;7.20;99.90
11855;DHT22;5987;53.140;8.904;2024-03-23T04:47:04;7.10;99.90
11855;DHT22;5987;53.140;8.904;2024-03-23T04:50:07;7.10;99.90
11855;DHT22;5987;53.140;8.904;2024-03-23T04:53:11;7.10;99.90
11855;DHT22;5987;53.140;8.904;2024-03-23T04:56:14;7.10;99.90
11855;DHT22;5987;53.140;8.904;2024-03-23T04:59:17;7.10;99.90
11855;DHT22;5987;53.140;8.904;2024-03-23T05:02:19;7.10;99.90
11855;DHT22;5987;53.140;8.904;2024-03-23T05:05:21;7.10;99.90
11855;DHT22;5987;53.140;8.904;2024-03-23T05:08:22;7.10;99.90
11855;DHT22;5987;53.140;8.904;2024-03-23T05:11:25;7.10;99.90
11855;DHT22;5987;53.140;8.904;2024-03-23T05:14:26;7.10;99.90
11855;DHT22;5987;53.140;8.904;2024-03-23T05:17:29;7.00;99.90
11855;DHT22;5987;53.140;8.904;2024-03-23T05:20:30;7.00;99.90
11855;DHT22;5987;53.140;8.904;2024-03-23T05:23:32;7.10;99.90
11855;DHT22;5987;53.140;8.904;2024-03-23T05:26:35;7.00;99.90
11855;DHT22;5987;53.140;8.904;2024-03-23T05:29:37;6.90;99.90
11855;DHT22;5987;53.140;8.904;2024-03-23T05:32:38;7.00;99.90
11855;DHT22;5987;53.140;8.904;2024-03-23T05:35:42;7.00;99.90
11855;DHT22;5987;53.140;8.904;2024-03-23T05:38:44;7.00;99.90
11855;DHT22;5987;53.140;8.904;2024-03-23T05:41:46;6.90;99.90
11855;DHT22;5987;53.140;8.904;2024-03-23T05:44:48;6.80;99.90
11855;DHT22;5987;53.140;8.904;2024-03-23T05:47:51;6.80;99.90
11855;DHT22;5987;53.140;8.904;2024-03-23T05:50:53;6.80;99.90
11855;DHT22;5987;53.140;8.904;2024-03-23T05:53:55;6.80;99.90
11855;DHT22;5987;53.140;8.904;2024-03-23T05:56:57;6.70;99.90
11855;DHT22;5987;53.140;8.904;2024-03-23T05:59:58;6.80;99.90
11855;DHT22;5987;53.140;8.904;2024-03-23T06:03:00;6.70;99.90
11855;DHT22;5987;53.140;8.904;2024-03-23T06:06:03;6.70;99.90
11855;DHT22;5987;53.140;8.904;2024-03-23T06:09:05;6.60;99.90
11855;DHT22;5987;53.140;8.904;2024-03-23T06:12:07;6.70;99.90
11855;DHT22;5987;53.140;8.904;2024-03-23T06:15:09;6.70;99.90
11855;DHT22;5987;53.140;8.904;2024-03-23T06:18:12;6.70;99.90
11855;DHT22;5987;53.140;8.904;2024-03-23T06:21:13;6.70;99.90
11855;DHT22;5987;53.140;8.904;2024-03-23T06:24:16;6.80;99.90
11855;DHT22;5987;53.140;8.904;2024-03-23T06:27:18;6.80;99.90
11855;DHT22;5987;53.140;8.904;2024-03-23T06:30:20;6.80;99.90
11855;DHT22;5987;53.140;8.904;2024-03-23T06:33:22;6.90;99.90
11855;DHT22;5987;53.140;8.904;2024-03-23T06:36:25;6.90;99.90
11855;DHT22;5987;53.140;8.904;2024-03-23T06:39:26;7.00;99.90
11855;DHT22;5987;53.140;8.904;2024-03-23T06:42:29;7.00;99.90
11855;DHT22;5987;53.140;8.904;2024-03-23T06:45:30;7.10;99.90
11855;DHT22;5987;53.140;8.904;2024-03-23T06:48:32;7.10;99.90
11855;DHT22;5987;53.140;8.904;2024-03-23T06:51:33;7.20;99.90
11855;DHT22;5987;53.140;8.904;2024-03-23T06:54:36;7.30;99.90
11855;DHT22;5987;53.140;8.904;2024-03-23T06:57:37;7.30;99.90
11855;DHT22;5987;53.140;8.904;2024-03-23T07:00:39;7.40;99.90
11855;DHT22;5987;53.140;8.904;2024-03-23T07:03:41;7.40;99.90
11855;DHT22;5987;53.140;8.904;2024-03-23T07:06:44;7.50;99.90
11855;DHT22;5987;53.140;8.904;2024-03-23T07:09:46;7.60;99.90
11855;DHT22;5987;53.140;8.904;2024-03-23T07:12:49;7.70;99.90
11855;DHT22;5987;53.140;8.904;2024-03-23T07:15:53;7.90;99.90
11855;DHT22;5987;53.140;8.904;2024-03-23T07:18:57;8.00;99.90
11855;DHT22;5987;53.140;8.904;2024-03-23T07:21:58;8.00;99.90
11855;DHT22;5987;53.140;8.904;2024-03-23T07:25:01;8.20;99.90
11855;DHT22;5987;53.140;8.904;2024-03-23T07:28:04;8.40;99.90
11855;DHT22;5987;53.140;8.904;2024-03-23T07:31:07;8.50;99.90
11855;DHT22;5987;53.140;8.904;2024-03-23T07:34:10;8.70;99.90
11855;DHT22;5987;53.140;8.904;2024-03-23T07:37:13;8.90;99.90
11855;DHT22;5987;53.140;8.904;2024-03-23T07:40:14;8.90;99.90
11855;DHT22;5987;53.140;8.904;2024-03-23T07:43:17;8.80;99.90
11855;DHT22;5987;53.140;8.904;2024-03-23T07:46:18;8.90;99.90
11855;DHT22;5987;53.140;8.904;2024-03-23T07:49:21;9.10;99.90
11855;DHT22;5987;53.140;8.904;2024-03-23T07:52:22;9.20;99.90
11855;DHT22;5987;53.140;8.904;2024-03-23T07:55:24;9.40;99.90
11855;DHT22;5987;53.140;8.904;2024-03-23T07:58:26;9.60;99.90
11855;DHT22;5987;53.140;8.904;2024-03-23T08:01:29;9.70;99.90
11855;DHT22;5987;53.140;8.904;2024-03-23T08:04:31;9.70;99.90
11855;DHT22;5987;53.140;8.904;2024-03-23T08:07:33;9.70;99.90
11855;DHT22;5987;53.140;8.904;2024-03-23T08:10:36;9.60;99.90
11855;DHT22;5987;53.140;8.904;2024-03-23T08:13:39;9.30;99.90
11855;DHT22;5987;53.140;8.904;2024-03-23T08:16:43;9.10;99.90
11855;DHT22;5987;53.140;8.904;2024-03-23T08:19:49;9.00;99.90
11855;DHT22;5987;53.140;8.904;2024-03-23T08:22:50;9.10;99.90
11855;DHT22;5987;53.140;8.904;2024-03-23T08:25:58;9.00;99.90
11855;DHT22;5987;53.140;8.904;2024-03-23T08:29:00;8.90;99.90
11855;DHT22;5987;53.140;8.904;2024-03-23T08:32:02;9.00;99.90
11855;DHT22;5987;53.140;8.904;2024-03-23T08:35:05;9.20;99.90
11855;DHT22;5987;53.140;8.904;2024-03-23T08:38:07;9.50;99.90
11855;DHT22;5987;53.140;8.904;2024-03-23T08:41:10;9.50;99.90
11855;DHT22;5987;53.140;8.904;2024-03-23T08:44:12;9.50;99.90
11855;DHT22;5987;53.140;8.904;2024-03-23T08:47:15;9.40;99.90
11855;DHT22;5987;53.140;8.904;2024-03-23T08:50:17;9.50;99.90
11855;DHT22;5987;53.140;8.904;2024-03-23T08:53:19;9.50;99.90
11855;DHT22;5987;53.140;8.904;2024-03-23T08:56:20;9.40;99.90
11855;DHT22;5987;53.140;8.904;2024-03-23T08:59:22;9.30;99.90
11855;DHT22;5987;53.140;8.904;2024-03-23T09:02:25;9.20;99.90
11855;DHT22;5987;53.140;8.904;2024-03-23T09:05:27;9.40;99.90
11855;DHT22;5987;53.140;8.904;2024-03-23T09:08:29;9.30;99.90
11855;DHT22;5987;53.140;8.904;2024-03-23T09:11:32;9.30;99.90
11855;DHT22;5987;53.140;8.904;2024-03-23T09:14:34;9.40;99.90
11855;DHT22;5987;53.140;8.904;2024-03-23T09:17:35;9.50;99.90
11855;DHT22;5987;53.140;8.904;2024-03-23T09:20:37;9.60;99.90
11855;DHT22;5987;53.140;8.904;2024-03-23T09:23:39;9.70;99.90
11855;DHT22;5987;53.140;8.904;2024-03-23T09:26:41;9.70;99.90
11855;DHT22;5987;53.140;8.904;2024-03-23T09:29:42;9.70;99.90
11855;DHT22;5987;53.140;8.904;2024-03-23T09:32:46;9.70;99.90
11855;DHT22;5987;53.140;8.904;2024-03-23T09:35:47;9.70;99.90
11855;DHT22;5987;53.140;8.904;2024-03-23T09:38:49;9.80;99.90
11855;DHT22;5987;53.140;8.904;2024-03-23T09:41:56;9.90;99.90
11855;DHT22;5987;53.140;8.904;2024-03-23T09:44:59;9.60;99.90
11855;DHT22;5987;53.140;8.904;2024-03-23T09:48:02;9.50;99.90
11855;DHT22;5987;53.140;8.904;2024-03-23T09:51:05;9.50;99.90
11855;DHT22;5987;53.140;8.904;2024-03-23T09:54:09;9.60;99.90
11855;DHT22;5987;53.140;8.904;2024-03-23T09:57:10;9.70;99.90
11855;DHT22;5987;53.140;8.904;2024-03-23T10:00:13;9.70;99.90
11855;DHT22;5987;53.140;8.904;2024-03-23T10:03:14;9.80;99.90
11855;DHT22;5987;53.140;8.904;2024-03-23T10:06:21;9.70;99.90
11855;DHT22;5987;53.140;8.904;2024-03-23T10:09:26;9.90;99.90
11855;DHT22;5987;53.140;8.904;2024-03-23T10:12:28;9.90;99.90
11855;DHT22;5987;53.140;8.904;2024-03-23T10:15:29;10.00;99.90
11855;DHT22;5987;53.140;8.904;2024-03-23T10:18:37;10.00;99.90
11855;DHT22;5987;53.140;8.904;2024-03-23T10:21:40;10.20;99.90
11855;DHT22;5987;53.140;8.904;2024-03-23T10:25:12;10.30;99.90
11855;DHT22;5987;53.140;8.904;2024-03-23T10:28:16;10.20;99.90
11855;DHT22;5987;53.140;8.904;2024-03-23T10:31:17;10.00;99.90
11855;DHT22;5987;53.140;8.904;2024-03-23T10:34:26;10.00;99.90
11855;DHT22;5987;53.140;8.904;2024-03-23T10:37:27;10.00;99.90
11855;DHT22;5987;53.140;8.904;2024-03-23T10:40:30;10.10;99.90
11855;DHT22;5987;53.140;8.904;2024-03-23T10:43:33;10.20;99.90
11855;DHT22;5987;53.140;8.904;2024-03-23T10:46:35;10.40;99.90
11855;DHT22;5987;53.140;8.904;2024-03-23T10:49:38;10.30;99.90
11855;DHT22;5987;53.140;8.904;2024-03-23T10:52:42;10.60;99.90
11855;DHT22;5987;53.140;8.904;2024-03-23T10:55:49;10.70;99.90
11855;DHT22;5987;53.140;8.904;2024-03-23T10:58:52;10.40;99.90
11855;DHT22;5987;53.140;8.904;2024-03-23T11:02:00;10.20;99.90
11855;DHT22;5987;53.140;8.904;2024-03-23T11:11:38;10.80;99.90
11855;DHT22;5987;53.140;8.904;2024-03-23T11:14:41;10.60;99.90
11855;DHT22;5987;53.140;8.904;2024-03-23T11:18:05;10.80;99.90
11855;DHT22;5987;53.140;8.904;2024-03-23T11:21:10;10.90;99.90
11855;DHT22;5987;53.140;8.904;2024-03-23T11:24:14;10.90;99.90
11855;DHT22;5987;53.140;8.904;2024-03-23T11:27:16;10.90;99.90
11855;DHT22;5987;53.140;8.904;2024-03-23T11:30:22;10.70;99.90
11855;DHT22;5987;53.140;8.904;2024-03-23T11:33:25;10.80;99.90
11855;DHT22;5987;53.140;8.904;2024-03-23T11:36:27;11.00;99.90
11855;DHT22;5987;53.140;8.904;2024-03-23T11:39:29;11.30;99.90
11855;DHT22;5987;53.140;8.904;2024-03-23T11:42:31;11.20;99.90
11855;DHT22;5987;53.140;8.904;2024-03-23T11:45:46;11.10;99.90
11855;DHT22;5987;53.140;8.904;2024-03-23T11:48:50;11.20;99.90
11855;DHT22;5987;53.140;8.904;2024-03-23T11:51:54;11.20;99.90
11855;DHT22;5987;53.140;8.904;2024-03-23T11:55:05;11.10;99.90
11855;DHT22;5987;53.140;8.904;2024-03-23T11:58:10;11.10;99.90
11855;DHT22;5987;53.140;8.904;2024-03-23T12:01:12;11.20;99.90
11855;DHT22;5987;53.140;8.904;2024-03-23T12:04:28;11.20;99.90
11855;DHT22;5987;53.140;8.904;2024-03-23T12:07:29;11.20;99.90
11855;DHT22;5987;53.140;8.904;2024-03-23T12:10:32;11.40;99.90
11855;DHT22;5987;53.140;8.904;2024-03-23T12:13:33;11.30;99.90
11855;DHT22;5987;53.140;8.904;2024-03-23T12:16:36;11.30;99.90
11855;DHT22;5987;53.140;8.904;2024-03-23T12:19:38;11.10;99.90
11855;DHT22;5987;53.140;8.904;2024-03-23T12:22:43;10.80;99.90
11855;DHT22;5987;53.140;8.904;2024-03-23T12:25:48;10.40;99.90
11855;DHT22;5987;53.140;8.904;2024-03-23T12:28:51;8.80;99.90
11855;DHT22;5987;53.140;8.904;2024-03-23T12:31:55;7.10;99.90
11855;DHT22;5987;53.140;8.904;2024-03-23T12:34:58;6.20;99.90
11855;DHT22;5987;53.140;8.904;2024-03-23T12:38:00;5.80;99.90
11855;DHT22;5987;53.140;8.904;2024-03-23T12:41:01;5.70;99.90
11855;DHT22;5987;53.140;8.904;2024-03-23T12:44:06;5.60;99.90
11855;DHT22;5987;53.140;8.904;2024-03-23T12:47:09;5.70;99.90
11855;DHT22;5987;53.140;8.904;2024-03-23T12:50:12;5.90;99.90
11855;DHT22;5987;53.140;8.904;2024-03-23T12:53:14;6.20;99.90
11855;DHT22;5987;53.140;8.904;2024-03-23T12:56:17;6.50;99.90
11855;DHT22;5987;53.140;8.904;2024-03-23T12:59:19;6.80;99.90
11855;DHT22;5987;53.140;8.904;2024-03-23T13:02:22;7.10;99.90
11855;DHT22;5987;53.140;8.904;2024-03-23T13:05:24;7.30;99.90
11855;DHT22;5987;53.140;8.904;2024-03-23T13:08:27;7.50;99.90
11855;DHT22;5987;53.140;8.904;2024-03-23T13:11:28;7.70;99.90
11855;DHT22;5987;53.140;8.904;2024-03-23T13:14:31;7.80;99.90
11855;DHT22;5987;53.140;8.904;2024-03-23T13:17:34;8.00;99.90
11855;DHT22;5987;53.140;8.904;2024-03-23T13:20:41;8.30;99.90
11855;DHT22;5987;53.140;8.904;2024-03-23T13:23:42;8.50;99.90
11855;DHT22;5987;53.140;8.904;2024-03-23T13:26:52;8.70;99.90
11855;DHT22;5987;53.140;8.904;2024-03-23T13:29:54;8.80;99.90
11855;DHT22;5987;53.140;8.904;2024-03-23T13:32:58;8.90;99.90
11855;DHT22;5987;53.140;8.904;2024-03-23T13:36:00;9.10;99.90
11855;DHT22;5987;53.140;8.904;2024-03-23T13:39:03;9.10;99.90
11855;DHT22;5987;53.140;8.904;2024-03-23T13:42:11;8.30;99.90
11855;DHT22;5987;53.140;8.904;2024-03-23T13:45:14;8.00;99.90
11855;DHT22;5987;53.140;8.904;2024-03-23T13:48:16;7.70;99.90
11855;DHT22;5987;53.140;8.904;2024-03-23T13:51:23;7.50;99.90
11855;DHT22;5987;53.140;8.904;2024-03-23T13:54:28;7.50;99.90
11855;DHT22;5987;53.140;8.904;2024-03-23T13:57:56;7.70;99.90
11855;DHT22;5987;53.140;8.904;2024-03-23T14:01:02;8.00;99.90
11855;DHT22;5987;53.140;8.904;2024-03-23T14:04:04;8.00;99.90
11855;DHT22;5987;53.140;8.904;2024-03-23T14:07:06;8.00;99.90
11855;DHT22;5987;53.140;8.904;2024-03-23T14:10:10;8.10;99.90
11855;DHT22;5987;53.140;8.904;2024-03-23T14:13:14;8.20;99.90
11855;DHT22;5987;53.140;8.904;2024-03-23T14:16:15;8.40;99.90
11855;DHT22;5987;53.140;8.904;2024-03-23T14:19:18;8.50;99.90
11855;DHT22;5987;53.140;8.904;2024-03-23T14:22:20;8.30;99.90
11855;DHT22;5987;53.140;8.904;2024-03-23T14:25:27;8.40;99.90
11855;DHT22;5987;53.140;8.904;2024-03-23T14:28:30;8.50;99.90
11855;DHT22;5987;53.140;8.904;2024-03-23T14:31:32;8.40;99.90
11855;DHT22;5987;53.140;8.904;2024-03-23T14:34:34;8.50;99.90
11855;DHT22;5987;53.140;8.904;2024-03-23T14:37:40;8.50;99.90
11855;DHT22;5987;53.140;8.904;2024-03-23T14:40:42;8.60;99.90
11855;DHT22;5987;53.140;8.904;2024-03-23T14:43:45;8.70;99.90
11855;DHT22;5987;53.140;8.904;2024-03-23T14:46:49;8.80;99.90
11855;DHT22;5987;53.140;8.904;2024-03-23T14:49:55;8.80;99.90
11855;DHT22;5987;53.140;8.904;2024-03-23T14:52:59;8.80;99.90
11855;DHT22;5987;53.140;8.904;2024-03-23T14:56:03;8.70;99.90
11855;DHT22;5987;53.140;8.904;2024-03-23T14:59:04;8.90;99.90
11855;DHT22;5987;53.140;8.904;2024-03-23T15:02:08;9.10;99.90
11855;DHT22;5987;53.140;8.904;2024-03-23T15:05:16;9.30;99.90
11855;DHT22;5987;53.140;8.904;2024-03-23T15:08:18;9.50;99.90
11855;DHT22;5987;53.140;8.904;2024-03-23T15:11:20;9.40;99.90
11855;DHT22;5987;53.140;8.904;2024-03-23T15:14:23;9.40;99.90
11855;DHT22;5987;53.140;8.904;2024-03-23T15:17:25;9.60;99.90
11855;DHT22;5987;53.140;8.904;2024-03-23T15:20:28;9.80;99.90
11855;DHT22;5987;53.140;8.904;2024-03-23T15:23:29;9.70;99.90
11855;DHT22;5987;53.140;8.904;2024-03-23T15:26:32;9.50;99.90
11855;DHT22;5987;53.140;8.904;2024-03-23T15:29:33;9.20;99.90
11855;DHT22;5987;53.140;8.904;2024-03-23T15:32:37;8.90;99.90
11855;DHT22;5987;53.140;8.904;2024-03-23T15:35:39;9.00;99.90
11855;DHT22;5987;53.140;8.904;2024-03-23T15:38:41;8.90;99.90
11855;DHT22;5987;53.140;8.904;2024-03-23T15:41:47;8.60;99.90
11855;DHT22;5987;53.140;8.904;2024-03-23T15:44:49;8.50;99.90
11855;DHT22;5987;53.140;8.904;2024-03-23T15:47:50;8.30;99.90
11855;DHT22;5987;53.140;8.904;2024-03-23T15:50:54;8.30;99.90
11855;DHT22;5987;53.140;8.904;2024-03-23T15:53:56;8.40;99.90
11855;DHT22;5987;53.140;8.904;2024-03-23T15:56:59;8.40;99.90
11855;DHT22;5987;53.140;8.904;2024-03-23T16:00:03;8.40;99.90
11855;DHT22;5987;53.140;8.904;2024-03-23T16:03:07;8.30;99.90
11855;DHT22;5987;53.140;8.904;2024-03-23T16:06:08;8.20;99.90
11855;DHT22;5987;53.140;8.904;2024-03-23T16:09:11;8.10;99.90
11855;DHT22;5987;53.140;8.904;2024-03-23T16:12:12;8.20;99.90
11855;DHT22;5987;53.140;8.904;2024-03-23T16:15:14;8.40;99.90
11855;DHT22;5987;53.140;8.904;2024-03-23T16:18:15;8.50;99.90
11855;DHT22;5987;53.140;8.904;2024-03-23T16:21:18;8.60;99.90
11855;DHT22;5987;53.140;8.904;2024-03-23T16:24:20;8.50;99.90
11855;DHT22;5987;53.140;8.904;2024-03-23T16:27:23;8.40;99.90
11855;DHT22;5987;53.140;8.904;2024-03-23T16:30:24;8.40;99.90
11855;DHT22;5987;53.140;8.904;2024-03-23T16:33:29;8.40;99.90
11855;DHT22;5987;53.140;8.904;2024-03-23T16:36:32;8.30;99.90
11855;DHT22;5987;53.140;8.904;2024-03-23T16:39:34;8.00;99.90
11855;DHT22;5987;53.140;8.904;2024-03-23T16:42:36;7.90;99.90
11855;DHT22;5987;53.140;8.904;2024-03-23T16:45:39;7.70;99.90
11855;DHT22;5987;53.140;8.904;2024-03-23T16:48:44;7.50;99.90
11855;DHT22;5987;53.140;8.904;2024-03-23T16:51:46;7.40;99.90
11855;DHT22;5987;53.140;8.904;2024-03-23T16:54:48;7.60;99.90
11855;DHT22;5987;53.140;8.904;2024-03-23T16:57:50;7.70;99.90
11855;DHT22;5987;53.140;8.904;2024-03-23T17:00:51;7.70;99.90
11855;DHT22;5987;53.140;8.904;2024-03-23T17:03:57;7.60;99.90
11855;DHT22;5987;53.140;8.904;2024-03-23T17:06:58;7.50;99.90
11855;DHT22;5987;53.140;8.904;2024-03-23T17:10:01;7.40;99.90
11855;DHT22;5987;53.140;8.904;2024-03-23T17:13:02;7.30;99.90
11855;DHT22;5987;53.140;8.904;2024-03-23T17:16:05;7.30;99.90
11855;DHT22;5987;53.140;8.904;2024-03-23T17:19:08;7.20;99.90
11855;DHT22;5987;53.140;8.904;2024-03-23T17:22:10;7.10;99.90
11855;DHT22;5987;53.140;8.904;2024-03-23T17:25:13;7.00;99.90
11855;DHT22;5987;53.140;8.904;2024-03-23T17:28:16;7.00;99.90
11855;DHT22;5987;53.140;8.904;2024-03-23T17:31:21;6.90;99.90
11855;DHT22;5987;53.140;8.904;2024-03-23T17:34:24;6.80;99.90
11855;DHT22;5987;53.140;8.904;2024-03-23T17:37:26;6.80;99.90
11855;DHT22;5987;53.140;8.904;2024-03-23T17:40:28;6.80;99.90
11855;DHT22;5987;53.140;8.904;2024-03-23T17:43:30;6.80;99.90
11855;DHT22;5987;53.140;8.904;2024-03-23T17:46:34;6.80;99.90
11855;DHT22;5987;53.140;8.904;2024-03-23T17:49:35;6.90;99.90
11855;DHT22;5987;53.140;8.904;2024-03-23T17:52:38;6.90;99.90
11855;DHT22;5987;53.140;8.904;2024-03-23T17:55:40;6.80;99.90
11855;DHT22;5987;53.140;8.904;2024-03-23T17:58:41;6.70;99.90
11855;DHT22;5987;53.140;8.904;2024-03-23T18:01:44;6.60;99.90
11855;DHT22;5987;53.140;8.904;2024-03-23T18:04:46;6.70;99.90
11855;DHT22;5987;53.140;8.904;2024-03-23T18:07:50;6.60;99.90
11855;DHT22;5987;53.140;8.904;2024-03-23T18:10:51;6.60;99.90
11855;DHT22;5987;53.140;8.904;2024-03-23T18:13:54;6.50;99.90
11855;DHT22;5987;53.140;8.904;2024-03-23T18:16:55;6.50;99.90
11855;DHT22;5987;53.140;8.904;2024-03-23T18:19:58;6.50;99.90
11855;DHT22;5987;53.140;8.904;2024-03-23T18:23:03;6.40;99.90
11855;DHT22;5987;53.140;8.904;2024-03-23T18:26:05;6.40;99.90
11855;DHT22;5987;53.140;8.904;2024-03-23T18:29:07;6.50;99.90
11855;DHT22;5987;53.140;8.904;2024-03-23T18:32:11;6.40;99.90
11855;DHT22;5987;53.140;8.904;2024-03-23T18:35:12;6.50;99.90
11855;DHT22;5987;53.140;8.904;2024-03-23T18:38:15;6.40;99.90
11855;DHT22;5987;53.140;8.904;2024-03-23T18:41:16;6.40;99.90
11855;DHT22;5987;53.140;8.904;2024-03-23T18:44:19;6.40;99.90
11855;DHT22;5987;53.140;8.904;2024-03-23T18:47:23;6.40;99.90
11855;DHT22;5987;53.140;8.904;2024-03-23T18:50:25;6.40;99.90
11855;DHT22;5987;53.140;8.904;2024-03-23T18:53:27;6.30;99.90
11855;DHT22;5987;53.140;8.904;2024-03-23T18:56:29;6.30;99.90
11855;DHT22;5987;53.140;8.904;2024-03-23T18:59:31;6.30;99.90
11855;DHT22;5987;53.140;8.904;2024-03-23T19:02:32;6.30;99.90
11855;DHT22;5987;53.140;8.904;2024-03-23T19:05:34;6.30;99.90
11855;DHT22;5987;53.140;8.904;2024-03-23T19:08:36;6.30;99.90
11855;DHT22;5987;53.140;8.904;2024-03-23T19:11:38;6.40;99.90
11855;DHT22;5987;53.140;8.904;2024-03-23T19:14:39;6.30;99.90
11855;DHT22;5987;53.140;8.904;2024-03-23T19:17:42;6.30;99.90
11855;DHT22;5987;53.140;8.904;2024-03-23T19:20:54;6.30;99.90
11855;DHT22;5987;53.140;8.904;2024-03-23T19:23:58;6.30;99.90
11855;DHT22;5987;53.140;8.904;2024-03-23T19:26:59;6.20;99.90
11855;DHT22;5987;53.140;8.904;2024-03-23T19:30:02;6.10;99.90
11855;DHT22;5987;53.140;8.904;2024-03-23T19:33:05;6.10;99.90
11855;DHT22;5987;53.140;8.904;2024-03-23T19:36:08;6.00;99.90
11855;DHT22;5987;53.140;8.904;2024-03-23T19:39:10;6.00;99.90
11855;DHT22;5987;53.140;8.904;2024-03-23T19:42:13;6.00;99.90
11855;DHT22;5987;53.140;8.904;2024-03-23T19:45:16;5.90;99.90
11855;DHT22;5987;53.140;8.904;2024-03-23T19:48:18;5.90;99.90
11855;DHT22;5987;53.140;8.904;2024-03-23T19:51:19;5.90;99.90
11855;DHT22;5987;53.140;8.904;2024-03-23T19:54:22;5.90;99.90
11855;DHT22;5987;53.140;8.904;2024-03-23T19:57:23;5.90;99.90
11855;DHT22;5987;53.140;8.904;2024-03-23T20:00:26;5.80;99.90
11855;DHT22;5987;53.140;8.904;2024-03-23T20:03:27;5.80;99.90
11855;DHT22;5987;53.140;8.904;2024-03-23T20:06:30;5.70;99.90
11855;DHT22;5987;53.140;8.904;2024-03-23T20:09:31;5.80;99.90
11855;DHT22;5987;53.140;8.904;2024-03-23T20:12:34;5.90;99.90
11855;DHT22;5987;53.140;8.904;2024-03-23T20:15:35;5.80;99.90
11855;DHT22;5987;53.140;8.904;2024-03-23T20:18:37;5.70;99.90
11855;DHT22;5987;53.140;8.904;2024-03-23T20:21:39;5.70;99.90
11855;DHT22;5987;53.140;8.904;2024-03-23T20:24:41;5.70;99.90
11855;DHT22;5987;53.140;8.904;2024-03-23T20:27:43;5.70;99.90
11855;DHT22;5987;53.140;8.904;2024-03-23T20:30:47;5.70;99.90
11855;DHT22;5987;53.140;8.904;2024-03-23T20:33:57;5.60;99.90
11855;DHT22;5987;53.140;8.904;2024-03-23T20:36:59;5.60;99.90
11855;DHT22;5987;53.140;8.904;2024-03-23T20:40:01;5.60;99.90
11855;DHT22;5987;53.140;8.904;2024-03-23T20:43:07;5.60;99.90
11855;DHT22;5987;53.140;8.904;2024-03-23T20:46:12;5.60;99.90
11855;DHT22;5987;53.140;8.904;2024-03-23T20:49:14;5.60;99.90
11855;DHT22;5987;53.140;8.904;2024-03-23T20:52:16;5.60;99.90